createdAt,value
2018-02-27T00:01:11.074Z,13.32
2018-02-27T00:03:38.847Z,13.70
2018-02-27T00:06:06.406Z,11.50
2018-02-27T00:08:33.995Z,13.93
2018-02-27T00:11:01.573Z,11.73
2018-02-27T00:13:29.149Z,13.43
2018-02-27T00:15:56.711Z,12.90
2018-02-27T00:18:24.338Z,36.72
2018-02-27T00:20:52.105Z,16.60
2018-02-27T00:23:19.922Z,14.55
2018-02-27T00:25:47.509Z,13.75
2018-02-27T00:28:15.258Z,14.02
2018-02-27T00:30:42.850Z,13.02
2018-02-27T00:33:10.561Z,14.18
2018-02-27T00:35:38.129Z,11.48
2018-02-27T00:38:05.695Z,12.07
2018-02-27T00:40:33.246Z,9.63
2018-02-27T00:43:00.821Z,11.95
2018-02-27T00:45:28.382Z,12.27
2018-02-27T00:47:55.992Z,12.65
2018-02-27T00:50:23.884Z,13.95
2018-02-27T00:52:51.616Z,13.38
2018-02-27T00:55:19.197Z,11.88
2018-02-27T00:57:46.767Z,15.10
2018-02-27T01:00:14.491Z,13.60
2018-02-27T01:02:42.196Z,12.15
2018-02-27T01:05:09.770Z,14.65
2018-02-27T01:07:37.335Z,12.30
2018-02-27T01:10:05.163Z,11.70
2018-02-27T01:12:32.730Z,11.50
2018-02-27T01:15:00.302Z,13.25
2018-02-27T01:17:27.870Z,13.30
2018-02-27T01:19:55.527Z,13.60
2018-02-27T01:22:23.354Z,11.57
2018-02-27T01:24:50.914Z,11.18
2018-02-27T01:27:18.498Z,12.05
2018-02-27T01:29:46.074Z,11.05
2018-02-27T01:32:13.824Z,11.02
2018-02-27T01:34:41.643Z,12.15
2018-02-27T01:37:09.242Z,12.57
2018-02-27T01:39:36.879Z,11.75
2018-02-27T01:42:04.697Z,11.40
2018-02-27T01:44:32.518Z,11.15
2018-02-27T01:47:00.234Z,11.65
2018-02-27T01:49:27.814Z,11.50
2018-02-27T01:51:55.374Z,12.07
2018-02-27T01:54:22.940Z,10.88
2018-02-27T01:56:50.505Z,12.02
2018-02-27T01:59:18.113Z,11.63
2018-02-27T02:01:45.940Z,17.77
2018-02-27T02:04:13.505Z,12.68
2018-02-27T02:06:41.238Z,11.98
2018-02-27T02:09:08.804Z,11.70
2018-02-27T02:11:36.379Z,11.57
2018-02-27T02:14:03.982Z,12.55
2018-02-27T02:16:31.532Z,12.07
2018-02-27T02:18:59.098Z,11.18
2018-02-27T02:21:26.883Z,11.85
2018-02-27T02:23:54.702Z,10.77
2018-02-27T02:26:22.420Z,11.32
2018-02-27T02:28:50.029Z,11.65
2018-02-27T02:31:17.590Z,12.32
2018-02-27T02:33:45.337Z,12.05
2018-02-27T02:36:13.079Z,11.35
2018-02-27T02:38:40.650Z,12.18
2018-02-27T02:41:08.218Z,11.93
2018-02-27T02:43:35.778Z,13.75
2018-02-27T02:46:03.340Z,13.85
2018-02-27T02:48:30.920Z,11.40
2018-02-27T02:50:58.701Z,11.48
2018-02-27T02:53:26.274Z,12.63
2018-02-27T02:55:53.842Z,11.40
2018-02-27T02:58:21.663Z,21.17
2018-02-27T03:00:49.234Z,16.85
2018-02-27T03:03:16.806Z,15.73
2018-02-27T03:05:44.374Z,12.77
2018-02-27T03:08:11.945Z,12.40
2018-02-27T03:10:39.509Z,17.95
2018-02-27T03:13:07.078Z,23.75
2018-02-27T03:15:34.649Z,13.55
2018-02-27T03:18:02.219Z,12.88
2018-02-27T03:20:30.013Z,17.52
2018-02-27T03:22:57.578Z,13.00
2018-02-27T03:25:25.149Z,11.35
2018-02-27T03:27:52.966Z,16.55
2018-02-27T03:30:20.520Z,16.55
2018-02-27T03:32:48.098Z,12.85
2018-02-27T03:35:15.662Z,14.52
2018-02-27T03:37:43.234Z,11.57
2018-02-27T03:40:10.806Z,12.55
2018-02-27T03:42:38.381Z,17.37
2018-02-27T03:45:06.191Z,17.50
2018-02-27T03:47:34.028Z,17.12
2018-02-27T03:50:01.772Z,13.27
2018-02-27T03:52:29.545Z,13.62
2018-02-27T03:54:57.124Z,13.05
2018-02-27T03:57:24.689Z,10.95
2018-02-27T03:59:52.265Z,12.60
2018-02-27T04:02:19.982Z,22.08
2018-02-27T04:04:47.560Z,18.83
2018-02-27T04:07:15.131Z,12.00
2018-02-27T04:09:42.762Z,12.75
2018-02-27T04:12:10.589Z,15.75
2018-02-27T04:14:38.154Z,15.32
2018-02-27T04:17:05.733Z,13.85
2018-02-27T04:19:33.305Z,14.85
2018-02-27T04:22:00.894Z,14.57
2018-02-27T04:24:28.569Z,16.27
2018-02-27T04:26:56.294Z,16.85
2018-02-27T04:29:23.857Z,13.73
2018-02-27T04:31:51.632Z,12.20
2018-02-27T04:34:19.229Z,12.65
2018-02-27T04:36:46.790Z,13.35
2018-02-27T04:39:14.587Z,13.88
2018-02-27T04:41:42.163Z,13.20
2018-02-27T04:44:09.738Z,13.82
2018-02-27T04:46:37.509Z,12.68
2018-02-27T04:49:05.257Z,12.48
2018-02-27T04:51:32.832Z,12.70
2018-02-27T04:54:00.403Z,13.50
2018-02-27T04:56:28.212Z,13.38
2018-02-27T04:58:56.032Z,13.07
2018-02-27T05:01:23.633Z,12.40
2018-02-27T05:03:51.189Z,13.50
2018-02-27T05:06:18.984Z,19.30
2018-02-27T05:08:46.562Z,13.65
2018-02-27T05:11:14.304Z,15.40
2018-02-27T05:13:41.876Z,15.00
2018-02-27T05:16:09.633Z,13.55
2018-02-27T05:18:37.211Z,20.05
2018-02-27T05:21:04.777Z,19.83
2018-02-27T05:23:32.400Z,15.25
2018-02-27T05:26:00.013Z,18.05
2018-02-27T05:28:27.662Z,21.55
2018-02-27T05:30:55.239Z,23.02
2018-02-27T05:33:22.803Z,18.35
2018-02-27T05:35:50.379Z,17.73
2018-02-27T05:38:17.940Z,20.23
2018-02-27T05:40:45.582Z,15.90
2018-02-27T05:43:13.351Z,13.40
2018-02-27T05:45:40.914Z,15.68
2018-02-27T05:48:08.463Z,18.08
2018-02-27T05:50:36.076Z,14.77
2018-02-27T05:53:03.651Z,13.85
2018-02-27T05:55:31.218Z,17.85
2018-02-27T05:57:58.879Z,21.83
2018-02-27T06:00:26.677Z,22.52
2018-02-27T06:02:54.238Z,22.02
2018-02-27T06:05:21.977Z,17.33
2018-02-27T06:07:49.598Z,13.60
2018-02-27T06:10:17.194Z,14.02
2018-02-27T06:12:44.755Z,16.25
2018-02-27T06:15:12.486Z,16.98
2018-02-27T06:17:40.078Z,45.58
2018-02-27T06:20:07.116Z,22.23
2018-02-27T06:22:34.936Z,16.75
2018-02-27T06:25:02.628Z,14.85
2018-02-27T06:27:30.263Z,15.48
2018-02-27T06:29:57.996Z,16.83
2018-02-27T06:32:25.626Z,16.15
2018-02-27T06:34:53.429Z,17.83
2018-02-27T06:37:21.796Z,19.10
2018-02-27T06:39:49.378Z,24.70
2018-02-27T06:42:16.946Z,22.70
2018-02-27T06:44:44.538Z,16.17
2018-02-27T06:47:12.340Z,18.85
2018-02-27T06:49:39.951Z,17.23
2018-02-27T06:52:07.766Z,22.60
2018-02-27T06:54:35.573Z,21.98
2018-02-27T06:57:03.391Z,20.05
2018-02-27T06:59:30.968Z,21.25
2018-02-27T07:01:58.545Z,21.37
2018-02-27T07:04:26.101Z,22.70
2018-02-27T07:06:53.758Z,20.80
2018-02-27T07:09:21.484Z,21.08
2018-02-27T07:11:49.079Z,19.48
2018-02-27T07:14:16.707Z,28.87
2018-02-27T07:16:44.314Z,41.45
2018-02-27T07:19:13.463Z,27.35
2018-02-27T07:21:41.042Z,21.45
2018-02-27T07:24:08.794Z,18.92
2018-02-27T07:26:36.414Z,20.40
2018-02-27T07:29:04.048Z,27.58
2018-02-27T07:31:31.638Z,25.95
2018-02-27T07:33:59.198Z,22.40
2018-02-27T07:36:26.789Z,35.30
2018-02-27T07:38:54.343Z,29.37
2018-02-27T07:41:21.935Z,32.03
2018-02-27T07:43:49.737Z,36.50
2018-02-27T07:46:17.378Z,28.48
2018-02-27T07:48:44.962Z,19.60
2018-02-27T07:51:12.582Z,20.95
2018-02-27T07:53:40.410Z,20.62
2018-02-27T07:56:08.227Z,21.77
2018-02-27T07:58:35.846Z,21.20
2018-02-27T08:01:03.800Z,18.37
2018-02-27T08:03:31.780Z,54.25
2018-02-27T08:05:59.425Z,20.23
2018-02-27T08:08:27.430Z,22.50
2018-02-27T08:10:55.024Z,22.50
2018-02-27T08:13:22.856Z,45.65
2018-02-27T08:15:50.682Z,37.95
2018-02-27T08:18:18.698Z,21.92
2018-02-27T08:20:46.713Z,26.55
2018-02-27T08:23:14.569Z,24.55
2018-02-27T08:25:43.091Z,19.70
2018-02-27T08:28:10.729Z,20.25
2018-02-27T08:30:38.800Z,20.17
2018-02-27T08:33:06.558Z,23.40
2018-02-27T08:35:34.435Z,22.77
2018-02-27T08:38:02.037Z,23.38
2018-02-27T08:40:29.863Z,35.00
2018-02-27T08:42:57.494Z,29.50
2018-02-27T08:45:25.068Z,17.58
2018-02-27T08:47:52.708Z,16.77
2018-02-27T08:50:20.330Z,19.15
2018-02-27T08:52:47.943Z,23.85
2018-02-27T08:55:15.522Z,31.25
2018-02-27T08:57:44.836Z,24.35
2018-02-27T09:00:12.454Z,25.37
2018-02-27T09:02:40.231Z,52.65
2018-02-27T09:05:07.837Z,26.08
2018-02-27T09:07:35.419Z,20.75
2018-02-27T09:10:03.003Z,20.60
2018-02-27T09:12:30.583Z,27.60
2018-02-27T09:14:58.151Z,57.03
2018-02-27T09:17:25.937Z,23.40
2018-02-27T09:19:53.504Z,25.10
2018-02-27T09:22:21.131Z,19.98
2018-02-27T09:24:48.708Z,20.27
2018-02-27T09:27:16.270Z,18.85
2018-02-27T09:29:44.002Z,27.55
2018-02-27T09:32:11.559Z,24.25
2018-02-27T09:34:39.154Z,18.27
2018-02-27T09:37:06.899Z,17.05
2018-02-27T09:39:34.678Z,20.95
2018-02-27T09:42:02.261Z,23.92
2018-02-27T09:44:29.854Z,20.08
2018-02-27T09:46:57.415Z,17.75
2018-02-27T09:49:25.216Z,21.80
2018-02-27T09:51:52.887Z,23.30
2018-02-27T09:54:20.495Z,22.08
2018-02-27T09:56:48.324Z,18.83
2018-02-27T09:59:15.890Z,25.85
2018-02-27T10:01:43.599Z,18.60
2018-02-27T10:04:11.364Z,21.02
2018-02-27T10:06:38.926Z,25.25
2018-02-27T10:11:40.435Z,28.35
2018-02-27T10:14:08.175Z,19.60
2018-02-27T10:16:36.310Z,18.48
2018-02-27T10:19:03.913Z,17.60
2018-02-27T10:21:31.546Z,17.55
2018-02-27T10:23:59.110Z,18.80
2018-02-27T10:26:26.863Z,19.92
2018-02-27T10:28:54.681Z,31.17
2018-02-27T10:31:23.198Z,51.45
2018-02-27T10:33:52.426Z,35.35
2018-02-27T10:36:20.504Z,19.37
2018-02-27T10:38:49.799Z,33.80
2018-02-27T10:41:17.996Z,17.00
2018-02-27T10:43:45.815Z,16.70
2018-02-27T10:46:13.378Z,22.30
2018-02-27T10:48:41.173Z,83.10
2018-02-27T10:51:08.745Z,40.42
2018-02-27T10:53:36.580Z,21.45
2018-02-27T10:56:04.138Z,27.40
2018-02-27T10:58:31.704Z,60.70
2018-02-27T11:03:58.364Z,23.70
2018-02-27T11:06:25.945Z,32.17
2018-02-27T11:08:53.726Z,37.30
2018-02-27T11:11:21.335Z,57.85
2018-02-27T11:13:48.978Z,44.80
2018-02-27T11:16:16.668Z,30.08
2018-02-27T11:18:44.242Z,31.85
2018-02-27T11:21:11.898Z,61.10
2018-02-27T11:23:39.482Z,26.77
2018-02-27T11:26:07.047Z,26.27
2018-02-27T11:28:34.639Z,25.33
2018-02-27T11:31:02.388Z,47.28
2018-02-27T11:33:29.975Z,32.78
2018-02-27T11:35:57.542Z,25.12
2018-02-27T11:38:25.161Z,33.17
2018-02-27T11:40:52.731Z,24.50
2018-02-27T11:43:20.441Z,41.88
2018-02-27T11:45:48.003Z,46.83
2018-02-27T11:48:15.574Z,38.47
2018-02-27T11:50:43.332Z,25.15
2018-02-27T11:53:10.903Z,47.78
2018-02-27T11:55:38.536Z,30.95
2018-02-27T11:58:06.108Z,53.47
2018-02-27T12:00:33.794Z,25.92
2018-02-27T12:03:01.626Z,28.90
2018-02-27T12:05:29.261Z,39.38
2018-02-27T12:07:57.057Z,21.33
2018-02-27T12:10:24.617Z,20.23
2018-02-27T12:12:52.252Z,28.58
2018-02-27T12:15:19.829Z,27.23
2018-02-27T12:17:47.522Z,28.08
2018-02-27T12:20:15.126Z,30.17
2018-02-27T12:22:42.722Z,28.12
2018-02-27T12:25:10.483Z,25.12
2018-02-27T12:27:38.066Z,27.75
2018-02-27T12:30:05.792Z,31.42
2018-02-27T12:32:33.426Z,30.90
2018-02-27T12:35:01.059Z,26.80
2018-02-27T12:37:29.528Z,27.02
2018-02-27T12:39:57.794Z,23.15
2018-02-27T12:42:25.366Z,24.60
2018-02-27T12:44:53.118Z,23.73
2018-02-27T12:47:20.954Z,27.23
2018-02-27T12:49:48.770Z,25.08
2018-02-27T12:52:16.452Z,27.27
2018-02-27T12:54:44.207Z,50.00
2018-02-27T12:57:11.775Z,90.97
2018-02-27T12:59:39.359Z,38.45
2018-02-27T13:02:07.160Z,32.85
2018-02-27T13:04:34.746Z,27.33
2018-02-27T13:07:02.472Z,25.58
2018-02-27T13:09:30.100Z,21.10
2018-02-27T13:11:57.668Z,23.80
2018-02-27T13:14:25.238Z,29.02
2018-02-27T13:16:52.824Z,29.80
2018-02-27T13:19:20.644Z,33.63
2018-02-27T13:21:48.405Z,23.30
2018-02-27T13:24:15.974Z,36.30
2018-02-27T13:26:43.840Z,22.52
2018-02-27T13:29:11.428Z,22.48
2018-02-27T13:31:39.003Z,23.02
2018-02-27T13:34:06.584Z,28.62
2018-02-27T13:36:34.625Z,31.02
2018-02-27T13:39:02.217Z,25.62
2018-02-27T13:41:29.794Z,26.00
2018-02-27T13:43:57.569Z,36.08
2018-02-27T13:46:25.386Z,68.95
2018-02-27T13:48:53.202Z,28.08
2018-02-27T13:51:22.019Z,29.63
2018-02-27T13:53:49.832Z,25.17
2018-02-27T13:56:17.451Z,31.95
2018-02-27T13:58:44.996Z,34.25
2018-02-27T14:01:12.566Z,28.50
2018-02-27T14:03:40.206Z,27.95
2018-02-27T14:06:07.824Z,25.52
2018-02-27T14:08:35.400Z,25.65
2018-02-27T14:11:03.173Z,26.00
2018-02-27T14:13:30.764Z,27.73
2018-02-27T14:15:58.341Z,26.27
2018-02-27T14:18:25.922Z,46.65
2018-02-27T14:20:53.489Z,25.45
2018-02-27T14:23:21.081Z,23.58
2018-02-27T14:25:48.663Z,27.13
2018-02-27T14:28:16.266Z,22.48
2018-02-27T14:30:43.846Z,25.08
2018-02-27T14:33:11.424Z,28.62
2018-02-27T14:35:39.004Z,29.92
2018-02-27T14:38:06.580Z,22.77
2018-02-27T14:40:34.182Z,28.20
2018-02-27T14:43:01.834Z,23.02
2018-02-27T14:45:29.439Z,23.45
2018-02-27T14:47:57.015Z,25.50
2018-02-27T14:50:24.599Z,24.70
2018-02-27T14:52:52.244Z,23.60
2018-02-27T14:55:19.821Z,26.27
2018-02-27T14:57:47.421Z,23.77
2018-02-27T15:00:14.994Z,19.55
2018-02-27T15:02:42.590Z,19.23
2018-02-27T15:05:10.136Z,20.50
2018-02-27T15:07:37.771Z,28.83
2018-02-27T15:10:05.353Z,25.33
2018-02-27T15:12:32.925Z,26.48
2018-02-27T15:15:00.510Z,26.70
2018-02-27T15:17:28.109Z,26.45
2018-02-27T15:19:55.704Z,42.65
2018-02-27T15:22:23.282Z,24.08
2018-02-27T15:24:50.916Z,27.33
2018-02-27T15:27:18.490Z,23.02
2018-02-27T15:29:46.066Z,66.35
2018-02-27T15:32:13.639Z,39.80
2018-02-27T15:34:41.210Z,32.30
2018-02-27T15:37:08.888Z,39.00
2018-02-27T15:39:36.457Z,34.08
2018-02-27T15:42:04.079Z,29.33
2018-02-27T15:44:31.647Z,30.48
2018-02-27T15:46:59.227Z,27.13
2018-02-27T15:49:26.811Z,61.55
2018-02-27T15:51:54.382Z,39.42
2018-02-27T15:54:22.008Z,25.15
2018-02-27T15:56:49.589Z,30.62
2018-02-27T15:59:17.209Z,31.98
2018-02-27T16:01:44.773Z,36.22
2018-02-27T16:04:12.337Z,33.60
2018-02-27T16:06:39.994Z,45.25
2018-02-27T16:09:07.570Z,42.85
2018-02-27T16:11:35.174Z,45.53
2018-02-27T16:14:02.886Z,37.20
2018-02-27T16:16:30.514Z,52.17
2018-02-27T16:18:58.090Z,59.00
2018-02-27T16:21:25.640Z,79.90
2018-02-27T16:23:53.219Z,93.47
2018-02-27T16:26:20.790Z,94.75
2018-02-27T16:28:48.368Z,46.45
2018-02-27T16:31:15.982Z,28.77
2018-02-27T16:33:43.592Z,27.80
2018-02-27T16:36:11.158Z,41.83
2018-02-27T16:38:38.788Z,60.10
2018-02-27T16:41:06.379Z,59.85
2018-02-27T16:43:34.067Z,48.72
2018-02-27T16:46:01.671Z,50.40
2018-02-27T16:48:29.271Z,35.38
2018-02-27T16:50:56.850Z,39.70
2018-02-27T16:53:24.432Z,97.53
2018-02-27T16:55:52.059Z,68.45
2018-02-27T16:58:19.650Z,37.38
2018-02-27T17:00:47.254Z,32.60
2018-02-27T17:03:14.910Z,34.72
2018-02-27T17:05:42.478Z,38.45
2018-02-27T17:08:10.158Z,33.85
2018-02-27T17:10:37.964Z,29.05
2018-02-27T17:13:05.594Z,29.75
2018-02-27T17:15:33.281Z,27.60
2018-02-27T17:18:00.859Z,23.70
2018-02-27T17:20:28.450Z,34.92
2018-02-27T17:22:56.153Z,31.10
2018-02-27T17:25:23.750Z,23.33
2018-02-27T17:27:51.460Z,25.67
2018-02-27T17:30:19.041Z,29.73
2018-02-27T17:32:46.979Z,19.65
2018-02-27T17:35:14.593Z,26.15
2018-02-27T17:37:42.178Z,34.72
2018-02-27T17:40:09.733Z,31.77
2018-02-27T17:42:37.313Z,23.38
2018-02-27T17:45:04.903Z,35.15
2018-02-27T17:47:32.613Z,29.02
2018-02-27T17:50:00.223Z,18.80
2018-02-27T17:52:27.883Z,21.73
2018-02-27T17:54:55.454Z,22.95
2018-02-27T17:57:23.033Z,24.60
2018-02-27T17:59:50.632Z,23.65
2018-02-27T18:02:18.212Z,27.27
2018-02-27T18:04:45.795Z,28.83
2018-02-27T18:07:13.373Z,28.48
2018-02-27T18:09:40.946Z,26.25
2018-02-27T18:12:08.522Z,22.42
2018-02-27T18:14:36.090Z,25.00
2018-02-27T18:17:03.710Z,25.88
2018-02-27T18:19:31.285Z,24.02
2018-02-27T18:21:59.084Z,21.87
2018-02-27T18:24:26.650Z,26.00
2018-02-27T18:26:54.265Z,18.95
2018-02-27T18:29:21.833Z,26.67
2018-02-27T18:31:49.458Z,38.50
2018-02-27T18:34:17.019Z,75.65
2018-02-27T18:36:44.598Z,44.78
2018-02-27T18:39:12.206Z,42.50
2018-02-27T18:41:39.821Z,23.65
2018-02-27T18:44:07.480Z,35.40
2018-02-27T18:46:35.007Z,25.80
2018-02-27T18:49:02.620Z,33.05
2018-02-27T18:51:30.602Z,25.00
2018-02-27T18:53:58.174Z,27.15
2018-02-27T18:56:25.833Z,25.33
2018-02-27T18:58:53.412Z,25.05
2018-02-27T19:01:20.985Z,29.23
2018-02-27T19:03:48.586Z,25.88
2018-02-27T19:06:16.198Z,27.58
2018-02-27T19:08:44.590Z,36.50
2018-02-27T19:11:12.150Z,46.92
2018-02-27T19:13:39.726Z,28.40
2018-02-27T19:16:07.294Z,40.25
2018-02-27T19:18:34.868Z,26.45
2018-02-27T19:21:02.472Z,35.38
2018-02-27T19:23:30.054Z,27.87
2018-02-27T19:25:57.852Z,27.87
2018-02-27T19:28:25.475Z,24.98
2018-02-27T19:30:53.209Z,27.65
2018-02-27T19:33:20.774Z,32.97
2018-02-27T19:35:48.347Z,24.30
2018-02-27T19:38:15.929Z,20.85
2018-02-27T19:40:43.494Z,31.20
2018-02-27T19:43:11.176Z,34.33
2018-02-27T19:45:38.791Z,28.98
2018-02-27T19:48:06.363Z,21.40
2018-02-27T19:50:34.018Z,43.92
2018-02-27T19:53:01.602Z,25.15
2018-02-27T19:55:29.168Z,44.00
2018-02-27T19:57:56.745Z,29.60
2018-02-27T20:00:24.334Z,24.30
2018-02-27T20:02:51.949Z,24.37
2018-02-27T20:05:19.554Z,32.00
2018-02-27T20:07:47.141Z,27.00
2018-02-27T20:10:14.756Z,23.35
2018-02-27T20:12:42.318Z,25.20
2018-02-27T20:15:09.879Z,26.55
2018-02-27T20:17:42.945Z,28.58
2018-02-27T20:20:10.523Z,21.08
2018-02-27T20:22:43.730Z,25.23
2018-02-27T20:25:11.479Z,29.55
2018-02-27T20:27:39.052Z,26.83
2018-02-27T20:30:06.647Z,23.27
2018-02-27T20:32:34.231Z,35.05
2018-02-27T20:35:01.807Z,28.77
2018-02-27T20:37:29.386Z,33.92
2018-02-27T20:39:57.014Z,29.15
2018-02-27T20:42:24.620Z,25.73
2018-02-27T20:44:52.186Z,22.55
2018-02-27T20:47:19.747Z,30.23
2018-02-27T20:49:47.359Z,24.90
2018-02-27T20:52:14.944Z,26.70
2018-02-27T20:54:42.641Z,25.58
2018-02-27T20:57:10.222Z,22.20
2018-02-27T20:59:37.834Z,21.50
2018-02-27T21:02:05.422Z,27.30
2018-02-27T21:04:32.978Z,25.20
2018-02-27T21:07:00.551Z,28.60
2018-02-27T21:09:28.126Z,19.37
2018-02-27T21:11:55.708Z,21.17
2018-02-27T21:14:23.289Z,29.42
2018-02-27T21:16:50.904Z,21.83
2018-02-27T21:19:18.551Z,22.87
2018-02-27T21:21:46.186Z,20.83
2018-02-27T21:24:13.755Z,22.90
2018-02-27T21:26:41.331Z,22.70
2018-02-27T21:29:08.911Z,21.30
2018-02-27T21:31:36.482Z,51.78
2018-02-27T21:34:04.117Z,81.20
2018-02-27T21:36:31.686Z,31.02
2018-02-27T21:38:59.299Z,23.90
2018-02-27T21:41:27.070Z,22.33
2018-02-27T21:43:54.639Z,19.80
2018-02-27T21:46:22.445Z,21.80
2018-02-27T21:48:51.059Z,19.73
2018-02-27T21:51:18.673Z,21.83
2018-02-27T21:53:46.241Z,28.20
2018-02-27T21:56:13.821Z,19.52
2018-02-27T21:58:41.374Z,21.73
2018-02-27T22:01:09.011Z,20.23
2018-02-27T22:03:36.643Z,21.48
2018-02-27T22:06:04.242Z,20.65
2018-02-27T22:08:31.804Z,20.10
2018-02-27T22:10:59.370Z,19.58
2018-02-27T22:13:26.942Z,21.40
2018-02-27T22:15:54.511Z,25.58
2018-02-27T22:18:22.124Z,26.08
2018-02-27T22:20:49.690Z,23.98
2018-02-27T22:23:17.255Z,28.10
2018-02-27T22:25:44.844Z,30.40
2018-02-27T22:28:12.526Z,29.17
2018-02-27T22:30:40.116Z,30.40
2018-02-27T22:33:07.691Z,37.15
2018-02-27T22:35:35.298Z,29.02
2018-02-27T22:38:02.874Z,20.45
2018-02-27T22:40:30.449Z,21.60
2018-02-27T22:42:58.040Z,20.23
2018-02-27T22:45:25.726Z,22.05
2018-02-27T22:47:53.343Z,29.73
2018-02-27T22:50:20.908Z,19.50
2018-02-27T22:52:48.485Z,20.45
2018-02-27T22:55:16.086Z,20.35
2018-02-27T22:57:43.703Z,21.42
2018-02-27T23:00:11.350Z,26.70
2018-02-27T23:02:38.934Z,22.55
2018-02-27T23:05:06.501Z,19.08
2018-02-27T23:07:34.067Z,21.92
2018-02-27T23:10:01.646Z,22.55
2018-02-27T23:12:29.210Z,21.52
2018-02-27T23:14:56.802Z,23.38
2018-02-27T23:17:24.376Z,25.20
2018-02-27T23:19:51.949Z,21.60
2018-02-27T23:22:19.521Z,25.42
2018-02-27T23:24:55.207Z,24.12
2018-02-27T23:27:23.874Z,23.38
2018-02-27T23:30:02.287Z,23.02
2018-02-27T23:32:32.485Z,21.27
2018-02-27T23:35:09.508Z,22.17
2018-02-27T23:37:37.115Z,22.87
2018-02-27T23:40:04.843Z,19.98
2018-02-27T23:42:32.432Z,23.35
2018-02-27T23:45:00.009Z,23.77
2018-02-27T23:47:27.597Z,23.25
2018-02-27T23:49:55.171Z,24.15
2018-02-27T23:52:22.735Z,23.42
2018-02-27T23:54:50.410Z,24.70
2018-02-27T23:57:17.986Z,23.70
2018-02-27T23:59:45.555Z,22.15
